KITH/ITH METAR and TAF weather

Enter ICAO airport designator
Station Type Date Time Source
KITH METAR 2019/11/18 13:56 UTC NOAA

KITH 181356Z 12004KT 10SM OVC022 02/M01 A2989 RMK AO2 SLP129 T00221006


Station Type Date Time Source
KITH Decoded METAR 2019/11/18 13:56 UTC NOAA

Ithaca, Ithaca Tompkins Regional Airport, NY, United States (KITH) 42-29-27N 076-27-30W
Nov 18, 2019 - 08:56 AM EST / 2019.11.18 1356 UTC
Wind: from the ESE (120 degrees) at 5 MPH (4 KT):0
Visibility: 10 mile(s):0
Sky conditions: overcast
Temperature: 36.0 F (2.2 C)
Dew Point: 30.9 F (-0.6 C)
Relative Humidity: 81%
Pressure (altimeter): 29.89 in. Hg (1012 hPa)
ob: KITH 181356Z 12004KT 10SM OVC022 02/M01 A2989 RMK AO2 SLP129 T00221006
cycle: 14

Station Type Date Time Source
KITH TAF 2019/11/18 12:27 UTC NOAA

TAF KITH 181124Z 1812/1912 13005KT P6SM BKN019 OVC025
FM190600 VRB03KT P6SM OVC010

Example: see airport list